ususleCam  ususleCam


Besuchen Sie unsere anderen Wetter Stationen:

Template documentation
and downloads

And another site



METAR-Meldungen aus der Umgebung

   
LSZH - Zurich-Kloten (a, Switzerland
Entfernung von der Station bis: NW 47 km
Aktualisierung: 20-07-2019 00:50
Klar  
Klar  
   Wind: Westen 2 km/h
Wind: Westen 2 km/h
Temperatur: 16°C
Taupunkt: 14°C
Luftfeuchte: 88%
Luftdruck: 1017 hPa
Sichtbarkeit: More than 10 km
Bewölkung: Klar
LSZH 192250Z 26001KT CAVOK 16/14 Q1017 NOSIG
LSZL - Locarno, Switzerland
Entfernung von der Station bis: S 119 km
Aktualisierung: 20-07-2019 00:50
Teilweise bewölkt  
Teilweise bewölkt  
   Wind: Windstille
Wind: Windstille
Temperatur: 20°C
Taupunkt: 19°C
Luftfeuchte: 94%
Luftdruck: 1018 hPa
Bewölkung: Teilweise bewölkt
Sichtbarkeit: 10 km
Bewölkung: Teilweise bewölkt 4900 ft
LSZL 192250Z AUTO 00000KT 9999NDV SCT049 20/19 Q1018 RMK
LSZS - Samedan, Switzerland
Entfernung von der Station bis: SO 101 km
Aktualisierung: 20-07-2019 00:50
leicht bewölkt  
leicht bewölkt  
   Wind: SW 4 km/h
Wind: SW 4 km/h
Temperatur: 10°C
Taupunkt: 9°C
Luftfeuchte: 94%
Luftdruck: 1024 hPa
Bewölkung: leicht bewölkt
Sichtbarkeit: More than 10 km
Bewölkung: leicht bewölkt 1700 ft
LSZS 192250Z AUTO 23002KT 9999 FEW017 10/09 Q1024
LSME - Emmen, Switzerland
Entfernung von der Station bis: WSW 58 km
Aktualisierung: 20-07-2019 00:50
Klar  
Klar  
   Wind: Windstille
Wind: Windstille
Temperatur: 18°C
Taupunkt: 15°C
Luftfeuchte: 83%
Luftdruck: 1017 hPa
Bewölkung: Klar
Sichtbarkeit: 10 km
Bewölkung: Klar
LSME 192250Z AUTO 00000KT 9999NDV NCD 18/15 Q1017 RMK
LSZB - Bern/Belp, Switzerland
Entfernung von der Station bis: WSW 122 km
Aktualisierung: 20-07-2019 00:50
Klar  
Klar  
   Wind: variiert 4 km/h
Wind: variiert 4 km/h
Temperatur: 14°C
Taupunkt: 13°C
Luftfeuchte: 94%
Luftdruck: 1016 hPa
Sichtbarkeit: More than 10 km
Bewölkung: Klar
LSZB 192250Z AUTO VRB02KT CAVOK 14/13 Q1016
LFSB - Bale/Mulhouse, France
Entfernung von der Station bis: WNW 121 km
Aktualisierung: 20-07-2019 01:00
Klar  
Klar  
   Wind: WSW 7 km/h
Wind: WSW 7 km/h
Temperatur: 16°C
Taupunkt: 14°C
Luftfeuchte: 88%
Luftdruck: 1015 hPa
Sichtbarkeit: More than 10 km
Bewölkung: Klar
LFSB 192300Z AUTO 24004KT CAVOK 16/14 Q1015 NOSIG

Script entwickelt von  Saratoga-weather.org Angepasst für das Template von  Weerstation Leuven

Von uns verwendete Ausrüstung:

Wetterstation
Davis Vue

Wetterprogramm
Weather Display

Davis Vue

Weather Display